Time;durP1;ratioP1;P1;durP2;ratioP2;P2;SDS_P1;SDS_P2;PMS_P1;PMS_P2;Temp;Humidity;BMP_temperature;BMP_pressure;BME280_temperature;BME280_humidity;BME280_pressure;Samples;Min_cycle;Max_cycle;Signal;HPM_P1;HPM_P2
2024/03/09 00:03:14;;;;;;;14.95;8.18;;;8.30;99.90;;;;;;4769484;30;20071;-72
2024/03/09 00:06:26;;;;;;;9.73;7.30;;;8.20;99.90;;;;;;4770200;30;20169;-73
2024/03/09 00:08:58;;;;;;;11.10;8.53;;;8.20;99.90;;;;;;4706320;30;20045;-72
2024/03/09 00:11:25;;;;;;;12.45;8.80;;;8.10;99.90;;;;;;4821554;29;20407;-72
2024/03/09 00:13:52;;;;;;;12.90;8.73;;;8.10;99.90;;;;;;4892309;28;20056;-72
2024/03/09 00:16:19;;;;;;;12.43;8.43;;;8.20;99.90;;;;;;5014162;28;20069;-72
2024/03/09 00:18:44;;;;;;;11.43;8.40;;;8.10;99.90;;;;;;5015208;28;20088;-72
2024/03/09 00:21:10;;;;;;;10.33;8.73;;;8.10;99.90;;;;;;5015049;28;20034;-72
2024/03/09 00:23:36;;;;;;;11.07;8.43;;;8.10;99.90;;;;;;5015061;28;20038;-72
2024/03/09 00:26:05;;;;;;;11.17;8.87;;;8.10;99.90;;;;;;5014851;28;20040;-72
2024/03/09 00:28:32;;;;;;;13.53;8.93;;;8.00;99.90;;;;;;5015152;28;20359;-72
2024/03/09 00:30:59;;;;;;;11.43;8.30;;;8.10;99.90;;;;;;5015099;28;20478;-72
2024/03/09 00:33:25;;;;;;;10.87;7.73;;;8.10;99.90;;;;;;5015137;28;20108;-72
2024/03/09 00:35:54;;;;;;;9.33;7.80;;;8.10;99.90;;;;;;5014980;28;20497;-73
2024/03/09 00:38:20;;;;;;;10.47;8.10;;;8.10;99.90;;;;;;5014981;28;20493;-73
2024/03/09 00:40:45;;;;;;;14.03;8.63;;;8.10;99.90;;;;;;5014753;28;20119;-72
2024/03/09 00:43:11;;;;;;;10.30;7.40;;;8.10;99.90;;;;;;5030380;28;20044;-72
2024/03/09 00:45:37;;;;;;;13.07;8.30;;;8.10;99.90;;;;;;5034779;28;20121;-72
2024/03/09 00:48:03;;;;;;;10.30;7.93;;;8.20;99.90;;;;;;5034167;28;20064;-72
2024/03/09 00:50:29;;;;;;;10.03;7.40;;;8.20;99.90;;;;;;5017171;28;20045;-72
2024/03/09 00:52:54;;;;;;;9.57;7.13;;;8.20;99.90;;;;;;5034375;28;20029;-73
2024/03/09 00:55:22;;;;;;;12.00;7.20;;;8.20;99.90;;;;;;5034274;28;20133;-73
2024/03/09 00:57:51;;;;;;;9.93;7.23;;;8.20;99.90;;;;;;5034646;28;20034;-72
2024/03/09 01:00:18;;;;;;;8.30;7.10;;;8.20;99.90;;;;;;5034207;28;20044;-73
2024/03/09 01:02:49;;;;;;;11.43;8.30;;;8.20;99.90;;;;;;5033910;28;20034;-73
2024/03/09 01:05:19;;;;;;;9.73;7.23;;;8.20;99.90;;;;;;5034342;28;20053;-72
2024/03/09 01:07:45;;;;;;;8.90;6.93;;;8.20;99.90;;;;;;5034226;28;20109;-72
2024/03/09 01:10:11;;;;;;;11.03;7.27;;;8.20;99.90;;;;;;5034953;28;20029;-72
2024/03/09 01:12:37;;;;;;;8.50;6.27;;;8.10;99.90;;;;;;5034796;28;20044;-72
2024/03/09 01:15:11;;;;;;;7.47;6.23;;;8.10;99.90;;;;;;5034373;28;20159;-72
2024/03/09 01:17:38;;;;;;;9.03;6.67;;;8.10;99.90;;;;;;5034655;28;20450;-72
2024/03/09 01:27:46;;;;;;;8.60;6.53;;;8.10;99.90;;;;;;4973613;28;20026;-72
2024/03/09 01:37:22;;;;;;;11.37;7.97;;;8.20;99.90;;;;;;4859449;29;20181;-72
2024/03/09 01:39:48;;;;;;;9.93;7.13;;;8.20;99.90;;;;;;4874532;28;20043;-72
2024/03/09 01:42:42;;;;;;;10.10;7.50;;;8.20;99.90;;;;;;5013727;28;20520;-73
2024/03/09 01:45:15;;;;;;;8.47;6.00;;;8.20;99.90;;;;;;4973893;28;20069;-72
2024/03/09 01:47:41;;;;;;;7.07;4.77;;;8.20;99.90;;;;;;5013810;28;20049;-72
2024/03/09 01:50:13;;;;;;;11.43;4.93;;;8.20;99.90;;;;;;5013736;28;20034;-72
2024/03/09 01:52:43;;;;;;;7.27;4.67;;;8.20;99.90;;;;;;5013754;28;20523;-72
2024/03/09 01:55:10;;;;;;;5.83;4.47;;;8.20;99.90;;;;;;5013776;28;20657;-72
2024/03/09 01:57:37;;;;;;;5.57;4.47;;;8.20;99.90;;;;;;5012610;28;20470;-72
2024/03/09 02:00:05;;;;;;;6.90;4.67;;;8.20;99.90;;;;;;4993173;28;20673;-72
2024/03/09 02:02:32;;;;;;;5.67;4.23;;;8.10;99.90;;;;;;5010658;28;20121;-72
2024/03/09 02:05:00;;;;;;;5.50;4.43;;;8.10;99.90;;;;;;5012068;28;20105;-72
2024/03/09 02:07:25;;;;;;;8.67;4.93;;;8.10;99.90;;;;;;4995802;28;20041;-72
2024/03/09 02:09:52;;;;;;;7.20;4.20;;;8.10;99.90;;;;;;5013196;28;20118;-73
2024/03/09 02:12:19;;;;;;;5.80;4.50;;;8.10;99.90;;;;;;5013208;28;20549;-72
2024/03/09 02:14:45;;;;;;;5.57;3.57;;;8.10;99.90;;;;;;5012909;28;20046;-72
2024/03/09 02:17:11;;;;;;;4.23;3.33;;;8.10;99.90;;;;;;5012997;28;20042;-72
2024/03/09 02:19:41;;;;;;;4.30;3.70;;;8.10;99.90;;;;;;5012882;28;20038;-72
2024/03/09 02:22:13;;;;;;;4.60;3.20;;;8.10;99.90;;;;;;5012411;28;20414;-72
2024/03/09 02:24:43;;;;;;;6.32;4.00;;;8.10;99.90;;;;;;5013129;28;20112;-72
2024/03/09 02:27:10;;;;;;;4.87;3.53;;;8.10;99.90;;;;;;5013185;28;20033;-72
2024/03/09 02:29:36;;;;;;;4.60;3.37;;;8.00;99.90;;;;;;5012860;28;20030;-72
2024/03/09 02:32:01;;;;;;;4.53;3.50;;;8.00;99.90;;;;;;5012595;28;20068;-72
2024/03/09 02:34:27;;;;;;;4.37;3.23;;;8.00;99.90;;;;;;5011985;28;20398;-72
2024/03/09 02:36:54;;;;;;;5.30;3.47;;;8.00;99.90;;;;;;4994796;28;20030;-72
2024/03/09 02:39:20;;;;;;;4.40;3.50;;;8.10;99.90;;;;;;5012668;28;20041;-73
2024/03/09 02:41:46;;;;;;;4.80;3.93;;;8.00;99.90;;;;;;5012970;28;20378;-72
2024/03/09 02:44:13;;;;;;;4.80;3.83;;;8.10;99.90;;;;;;5012666;28;20037;-72
2024/03/09 02:46:39;;;;;;;5.57;3.60;;;8.10;99.90;;;;;;5012798;28;20425;-72
2024/03/09 02:49:05;;;;;;;5.13;4.03;;;8.10;99.90;;;;;;5013224;28;20049;-73
2024/03/09 02:51:35;;;;;;;6.17;4.33;;;8.10;99.90;;;;;;5013526;28;20070;-72
2024/03/09 02:54:03;;;;;;;6.93;4.70;;;8.10;99.90;;;;;;5013123;28;20389;-73
2024/03/09 03:00:58;;;;;;;5.57;4.57;;;8.10;99.90;;;;;;4951968;28;20542;-72
2024/03/09 03:04:22;;;;;;;6.00;4.30;;;8.10;99.90;;;;;;4960072;28;20410;-72
2024/03/09 03:07:25;;;;;;;5.60;4.10;;;8.10;99.90;;;;;;4990585;28;20522;-73
2024/03/09 03:13:56;;;;;;;5.37;3.67;;;8.10;99.90;;;;;;4896298;29;20611;-73
2024/03/09 03:16:27;;;;;;;4.23;3.00;;;8.10;99.90;;;;;;4959642;28;20070;-73
2024/03/09 03:22:48;;;;;;;4.87;3.00;;;8.10;99.90;;;;;;5012807;28;20037;-72
2024/03/09 03:25:14;;;;;;;6.07;3.37;;;8.00;99.90;;;;;;4992519;28;20394;-72
2024/03/09 03:27:47;;;;;;;3.73;2.90;;;8.00;99.90;;;;;;4994800;28;20041;-73
2024/03/09 03:30:16;;;;;;;3.45;2.65;;;8.00;99.90;;;;;;5012419;28;20075;-72
2024/03/09 03:32:43;;;;;;;5.00;3.20;;;8.00;99.90;;;;;;5012558;28;20038;-72
2024/03/09 03:35:10;;;;;;;6.77;3.20;;;8.00;99.90;;;;;;5012200;28;20041;-72
2024/03/09 03:37:35;;;;;;;3.90;3.10;;;8.00;99.90;;;;;;4994385;28;20394;-72
2024/03/09 03:40:01;;;;;;;4.77;3.40;;;8.00;99.90;;;;;;5012525;28;20038;-72
2024/03/09 03:42:27;;;;;;;5.50;3.10;;;7.90;99.90;;;;;;5012520;28;20105;-72
2024/03/09 03:44:53;;;;;;;8.83;3.70;;;8.00;99.90;;;;;;5013707;28;20033;-72
2024/03/09 03:47:19;;;;;;;5.90;3.47;;;8.00;99.90;;;;;;5015665;28;20049;-72
2024/03/09 03:49:48;;;;;;;4.20;3.50;;;8.00;99.90;;;;;;5015747;28;20037;-73
2024/03/09 03:52:14;;;;;;;4.87;3.00;;;8.00;99.90;;;;;;5015756;28;20034;-72
2024/03/09 03:54:39;;;;;;;5.30;2.50;;;8.00;99.90;;;;;;5015614;28;20042;-73
2024/03/09 03:57:05;;;;;;;4.63;2.77;;;8.00;99.90;;;;;;5015675;28;20084;-72
2024/03/09 03:59:34;;;;;;;5.57;3.47;;;8.00;99.90;;;;;;5015466;28;20030;-72
2024/03/09 04:02:00;;;;;;;5.27;3.00;;;8.00;99.90;;;;;;5015754;28;20045;-72
2024/03/09 04:04:27;;;;;;;4.80;3.03;;;8.00;99.90;;;;;;5015513;28;20145;-72
2024/03/09 04:06:53;;;;;;;4.83;4.33;;;8.00;99.90;;;;;;5015528;28;20030;-72
2024/03/09 04:09:20;;;;;;;5.63;4.13;;;7.90;99.90;;;;;;5015415;28;20049;-73
2024/03/09 04:11:49;;;;;;;4.63;3.33;;;7.90;99.90;;;;;;5015251;28;20038;-73
2024/03/09 04:14:17;;;;;;;4.70;3.27;;;7.90;99.90;;;;;;5015253;28;20041;-72
2024/03/09 04:16:42;;;;;;;8.30;6.53;;;7.90;99.90;;;;;;5015342;28;20033;-72
2024/03/09 04:19:09;;;;;;;7.60;6.90;;;7.90;99.90;;;;;;5015272;28;20394;-72
2024/03/09 04:21:38;;;;;;;6.47;5.87;;;7.90;99.90;;;;;;5015370;28;20033;-72
2024/03/09 04:24:06;;;;;;;5.67;4.53;;;7.90;99.90;;;;;;5015984;28;20085;-72
2024/03/09 04:26:31;;;;;;;3.70;2.77;;;7.90;99.90;;;;;;5015961;28;20429;-73
2024/03/09 04:29:01;;;;;;;4.00;3.07;;;7.90;99.90;;;;;;5015848;28;20037;-73
2024/03/09 04:31:27;;;;;;;4.03;2.70;;;7.90;99.90;;;;;;5015573;28;20439;-73
2024/03/09 04:58:35;;;;;;;8.33;4.67;;;7.90;99.90;;;;;;4840860;29;20510;-72
2024/03/09 05:01:01;;;;;;;6.10;4.37;;;7.90;99.90;;;;;;4841037;29;20046;-72
2024/03/09 05:03:28;;;;;;;5.10;4.10;;;7.90;99.90;;;;;;4850582;29;20394;-72
2024/03/09 05:05:54;;;;;;;5.33;4.23;;;7.90;99.90;;;;;;4984962;28;20081;-72
2024/03/09 05:08:20;;;;;;;4.93;3.97;;;8.00;99.90;;;;;;5014522;28;20042;-72
2024/03/09 05:10:46;;;;;;;5.97;4.57;;;7.90;99.90;;;;;;5014427;28;20522;-72
2024/03/09 05:13:11;;;;;;;7.83;4.47;;;8.00;99.90;;;;;;5013971;28;20088;-72
2024/03/09 05:15:37;;;;;;;7.40;3.87;;;7.90;99.90;;;;;;5013482;28;20054;-73
2024/03/09 05:18:07;;;;;;;5.57;3.77;;;7.90;99.90;;;;;;5014076;28;20034;-72
2024/03/09 05:20:33;;;;;;;5.70;3.90;;;7.90;99.90;;;;;;4997107;28;20128;-72
2024/03/09 05:23:03;;;;;;;7.03;3.63;;;7.90;99.90;;;;;;5014317;28;20177;-72
2024/03/09 05:25:31;;;;;;;4.93;3.40;;;7.90;99.90;;;;;;5014046;28;20042;-72
2024/03/09 05:27:59;;;;;;;6.90;3.77;;;7.90;99.90;;;;;;5013633;28;20528;-72
2024/03/09 05:30:28;;;;;;;5.47;3.67;;;8.00;99.90;;;;;;5014088;28;20513;-72
2024/03/09 05:32:54;;;;;;;4.83;3.73;;;7.90;99.90;;;;;;5013854;28;20497;-73
2024/03/09 05:35:21;;;;;;;6.70;4.10;;;8.00;99.90;;;;;;5013810;28;20058;-72
2024/03/09 05:37:49;;;;;;;4.63;3.17;;;7.90;99.90;;;;;;5013584;28;20026;-72
2024/03/09 05:40:16;;;;;;;4.73;3.80;;;7.90;99.90;;;;;;5013372;28;20085;-72
2024/03/09 05:42:43;;;;;;;5.60;3.73;;;7.90;99.90;;;;;;5013398;28;20034;-72
2024/03/09 05:45:15;;;;;;;4.70;3.23;;;7.90;99.90;;;;;;5013765;28;20438;-73
2024/03/09 05:47:47;;;;;;;6.17;3.27;;;7.90;99.90;;;;;;5013400;28;20048;-72
2024/03/09 05:50:17;;;;;;;4.47;2.92;;;7.90;99.90;;;;;;5013461;28;20026;-72
2024/03/09 05:52:47;;;;;;;5.63;2.83;;;7.90;99.90;;;;;;5013298;28;20029;-72
2024/03/09 05:55:13;;;;;;;3.33;2.57;;;7.90;99.90;;;;;;5022036;28;20055;-73
2024/03/09 05:57:42;;;;;;;3.13;2.20;;;7.90;99.90;;;;;;5033087;28;20100;-72
2024/03/09 06:00:09;;;;;;;4.00;2.40;;;8.00;99.90;;;;;;5033192;28;20474;-72
2024/03/09 06:02:39;;;;;;;4.43;3.00;;;7.90;99.90;;;;;;5033357;28;20042;-72
2024/03/09 06:05:09;;;;;;;4.27;3.33;;;8.00;99.90;;;;;;5033602;28;20026;-72
2024/03/09 06:07:38;;;;;;;3.93;2.93;;;8.00;99.90;;;;;;5033418;28;20385;-73
2024/03/09 06:24:32;;;;;;;2.77;1.80;;;8.00;99.90;;;;;;4811994;29;20106;-72
2024/03/09 06:27:45;;;;;;;2.83;2.00;;;8.00;99.90;;;;;;4768046;30;20970;-72
2024/03/09 06:30:50;;;;;;;2.90;2.20;;;8.00;99.90;;;;;;4720035;30;20211;-72
2024/03/09 06:34:22;;;;;;;2.50;1.97;;;8.00;99.90;;;;;;4767820;29;20108;-73
2024/03/09 06:36:55;;;;;;;2.77;1.73;;;8.00;99.90;;;;;;4714139;29;20086;-72
2024/03/09 06:39:21;;;;;;;1.60;1.20;;;8.00;99.90;;;;;;4805150;29;20035;-72
2024/03/09 06:41:52;;;;;;;4.70;1.73;;;8.00;99.90;;;;;;4929610;29;20424;-72
2024/03/09 06:44:18;;;;;;;2.20;1.70;;;8.00;99.90;;;;;;5032054;28;20037;-72
2024/03/09 06:46:49;;;;;;;2.63;1.30;;;8.00;99.90;;;;;;5031861;28;20112;-72
2024/03/09 06:49:14;;;;;;;3.20;1.30;;;8.00;99.90;;;;;;5031985;28;20389;-72
2024/03/09 06:51:40;;;;;;;2.80;1.20;;;8.00;99.90;;;;;;5032241;28;20036;-72
2024/03/09 06:54:06;;;;;;;1.70;1.20;;;8.00;99.90;;;;;;5032127;28;20088;-72
2024/03/09 06:56:33;;;;;;;1.70;1.07;;;8.00;99.90;;;;;;5031673;28;20044;-72
2024/03/09 06:58:58;;;;;;;1.40;0.90;;;8.00;99.90;;;;;;5032054;28;20557;-73
2024/03/09 07:01:29;;;;;;;1.80;1.30;;;8.00;99.90;;;;;;5031890;28;20117;-72
2024/03/09 07:04:00;;;;;;;2.00;1.20;;;8.00;99.90;;;;;;5030809;28;20474;-72
2024/03/09 07:06:26;;;;;;;2.03;1.30;;;8.00;99.90;;;;;;5032346;28;20465;-72
2024/03/09 07:08:52;;;;;;;2.07;1.60;;;8.00;99.90;;;;;;5032168;28;20057;-73
2024/03/09 07:11:20;;;;;;;2.00;1.33;;;8.00;99.90;;;;;;5032248;28;20049;-72
2024/03/09 07:13:45;;;;;;;2.23;1.30;;;8.00;99.90;;;;;;5032236;28;20466;-72
2024/03/09 07:16:14;;;;;;;3.00;2.00;;;8.00;99.90;;;;;;5032292;28;20064;-72
2024/03/09 07:18:40;;;;;;;3.00;1.90;;;8.10;99.90;;;;;;5032082;28;20064;-72
2024/03/09 07:21:06;;;;;;;3.53;1.93;;;8.10;99.90;;;;;;5035650;28;20037;-72
2024/03/09 07:23:31;;;;;;;2.43;1.73;;;8.00;99.90;;;;;;5035842;28;20038;-72
2024/03/09 07:25:59;;;;;;;3.30;1.77;;;8.10;99.90;;;;;;5035828;28;20038;-72
2024/03/09 07:28:25;;;;;;;3.40;1.70;;;8.00;99.90;;;;;;5017891;28;20064;-72
2024/03/09 07:30:51;;;;;;;3.10;2.17;;;8.10;99.90;;;;;;5035829;28;20119;-72
2024/03/09 07:33:17;;;;;;;2.83;1.87;;;8.00;99.90;;;;;;5035801;28;20612;-72
2024/03/09 07:35:46;;;;;;;3.40;2.20;;;8.00;99.90;;;;;;5035165;28;20132;-72
2024/03/09 07:38:12;;;;;;;3.10;1.80;;;8.10;99.90;;;;;;5023718;28;20477;-72
2024/03/09 07:40:41;;;;;;;4.17;2.30;;;8.00;99.90;;;;;;5033485;28;20108;-72
2024/03/09 07:43:07;;;;;;;3.27;1.83;;;8.10;99.90;;;;;;5033024;28;20029;-73
2024/03/09 07:45:33;;;;;;;2.70;2.00;;;8.10;99.90;;;;;;5034353;28;20029;-72
2024/03/09 07:48:02;;;;;;;3.23;2.00;;;8.10;99.90;;;;;;5035167;28;20401;-72
2024/03/09 07:51:20;;;;;;;3.23;2.30;;;8.10;99.90;;;;;;5032925;28;20437;-72
2024/03/09 07:54:50;;;;;;;3.03;1.73;;;8.10;99.90;;;;;;5032395;28;20418;-72
2024/03/09 08:04:21;;;;;;;3.93;2.80;;;8.10;99.90;;;;;;4916843;29;20092;-72
2024/03/09 08:07:38;;;;;;;;;;;;;;;;;;;;;
2024/03/09 08:13:35;;;;;;;2.80;1.90;;;8.00;99.90;;;;;;4875348;29;20111;-72
2024/03/09 08:16:01;;;;;;;3.27;1.90;;;8.10;99.90;;;;;;4952433;28;20696;-72
2024/03/09 08:18:31;;;;;;;5.10;1.77;;;8.10;99.90;;;;;;4973213;28;20116;-72
2024/03/09 08:20:58;;;;;;;3.87;2.40;;;8.00;99.90;;;;;;5012650;28;20033;-72
2024/03/09 08:23:25;;;;;;;5.33;1.90;;;8.10;99.90;;;;;;5015619;28;20327;-71
2024/03/09 08:25:52;;;;;;;3.60;2.10;;;8.10;99.90;;;;;;5033484;28;20029;-72
2024/03/09 08:28:20;;;;;;;3.17;2.20;;;8.10;99.90;;;;;;5034329;28;20033;-72
2024/03/09 08:30:47;;;;;;;3.03;2.30;;;8.10;99.90;;;;;;5033993;28;20044;-72
2024/03/09 08:33:13;;;;;;;2.80;2.00;;;8.10;99.90;;;;;;5034540;28;20042;-72
2024/03/09 08:35:39;;;;;;;2.83;1.53;;;8.10;99.90;;;;;;5034969;28;20116;-71
2024/03/09 08:38:06;;;;;;;2.30;1.60;;;8.10;99.90;;;;;;5034559;28;20175;-72
2024/03/09 08:40:32;;;;;;;4.23;2.40;;;8.10;99.90;;;;;;5034702;28;20473;-72
2024/03/09 08:42:58;;;;;;;3.27;2.53;;;8.20;99.90;;;;;;5034409;28;20144;-72
2024/03/09 08:45:28;;;;;;;8.93;5.80;;;8.20;99.90;;;;;;5034840;28;20112;-73
2024/03/09 08:47:55;;;;;;;5.13;3.40;;;8.20;99.90;;;;;;5034722;28;20504;-72
2024/03/09 08:50:23;;;;;;;4.47;3.27;;;8.20;99.90;;;;;;5034735;28;20041;-72
2024/03/09 08:52:48;;;;;;;4.50;2.70;;;8.20;99.90;;;;;;5034457;28;20091;-72
2024/03/09 08:55:14;;;;;;;4.30;2.30;;;8.30;99.90;;;;;;5034574;28;20054;-72
2024/03/09 08:57:46;;;;;;;2.77;1.63;;;8.30;99.90;;;;;;5034343;28;20036;-72
2024/03/09 09:00:12;;;;;;;4.20;2.50;;;8.30;99.90;;;;;;5034324;28;20041;-72
2024/03/09 09:02:38;;;;;;;5.70;2.33;;;8.30;99.90;;;;;;5034576;28;20489;-72
2024/03/09 09:05:11;;;;;;;5.80;3.60;;;8.30;99.90;;;;;;5034282;28;20041;-72
2024/03/09 09:07:40;;;;;;;;;;;8.30;99.90;;;;;;5034712;28;20041;-72
2024/03/09 09:10:11;;;;;;;5.97;2.90;;;8.30;99.90;;;;;;5034298;28;20004;-73
2024/03/09 09:12:43;;;;;;;5.47;2.90;;;8.30;99.90;;;;;;5033479;28;20068;-72
2024/03/09 09:15:10;;;;;;;3.95;1.70;;;8.30;99.90;;;;;;5032940;28;20046;-72
2024/03/09 09:17:37;;;;;;;4.20;1.80;;;8.30;99.90;;;;;;5034007;28;20375;-72
2024/03/09 09:20:12;;;;;;;4.83;1.60;;;8.40;99.90;;;;;;5033681;28;20052;-72
2024/03/09 09:22:47;;;;;;;2.50;1.83;;;8.30;99.90;;;;;;5033349;28;20034;-73
2024/03/09 09:25:25;;;;;;;4.40;2.33;;;8.40;99.90;;;;;;5031950;28;20401;-72
2024/03/09 09:38:07;;;;;;;4.93;1.90;;;8.50;99.90;;;;;;5034186;28;20145;-72
2024/03/09 09:41:42;;;;;;;2.07;1.47;;;8.50;99.90;;;;;;4998171;28;20393;-74
2024/03/09 09:44:20;;;;;;;2.53;1.35;;;8.50;99.90;;;;;;5032632;28;20112;-72
2024/03/09 09:47:16;;;;;;;1.87;1.40;;;8.50;99.90;;;;;;5033178;28;20041;-73
2024/03/09 09:50:34;;;;;;;1.67;1.23;;;8.50;99.90;;;;;;5028171;28;20124;-73
2024/03/09 09:53:02;;;;;;;3.03;1.53;;;8.50;99.90;;;;;;5004018;28;20585;-72
2024/03/09 09:55:29;;;;;;;3.40;1.70;;;8.50;99.90;;;;;;5033297;28;20076;-72
2024/03/09 09:57:54;;;;;;;3.37;2.00;;;8.50;99.90;;;;;;5033288;28;20033;-72
2024/03/09 10:00:23;;;;;;;2.70;1.87;;;8.60;99.90;;;;;;5033700;28;20040;-72
2024/03/09 10:02:49;;;;;;;1.80;1.30;;;8.60;99.90;;;;;;5033438;28;20413;-72
2024/03/09 10:05:16;;;;;;;3.20;2.07;;;8.60;99.90;;;;;;5033345;28;20041;-74
2024/03/09 10:08:09;;;;;;;2.90;1.90;;;8.70;99.90;;;;;;5033520;28;20399;-73
2024/03/09 10:10:38;;;;;;;4.73;2.43;;;8.70;99.90;;;;;;5033463;28;20411;-73
2024/03/09 10:13:10;;;;;;;3.33;2.37;;;8.70;99.90;;;;;;5031706;28;20549;-73
2024/03/09 10:15:41;;;;;;;4.97;2.37;;;8.70;99.90;;;;;;5032445;28;20108;-73
2024/03/09 10:18:08;;;;;;;5.40;2.60;;;8.80;99.90;;;;;;5033144;28;20053;-73
2024/03/09 10:20:38;;;;;;;3.53;2.53;;;8.70;99.90;;;;;;5033033;28;20464;-73
2024/03/09 10:23:12;;;;;;;2.80;2.17;;;8.70;99.90;;;;;;5032767;28;20406;-73
2024/03/09 10:25:39;;;;;;;3.83;2.10;;;8.80;99.90;;;;;;5033108;28;20033;-74
2024/03/09 10:28:07;;;;;;;3.27;2.00;;;8.80;99.90;;;;;;5032487;28;20540;-73
2024/03/09 10:30:37;;;;;;;3.77;2.63;;;8.80;99.90;;;;;;5032791;28;20484;-73
2024/03/09 10:33:16;;;;;;;3.30;2.47;;;8.80;99.90;;;;;;5032425;28;20116;-73
2024/03/09 10:35:45;;;;;;;3.63;2.00;;;8.80;99.90;;;;;;5032533;28;20095;-73
2024/03/09 10:38:12;;;;;;;3.83;1.40;;;8.80;99.90;;;;;;5032790;28;20033;-73
2024/03/09 10:40:39;;;;;;;1.70;1.20;;;8.80;99.90;;;;;;5014981;28;20492;-73
2024/03/09 10:43:11;;;;;;;6.63;1.40;;;8.80;99.90;;;;;;5032254;28;20032;-73
2024/03/09 10:45:38;;;;;;;3.17;1.20;;;8.80;99.90;;;;;;5032590;28;20034;-73
2024/03/09 10:48:09;;;;;;;1.73;1.20;;;8.80;99.90;;;;;;5032224;28;20187;-73
2024/03/09 10:50:46;;;;;;;2.17;1.20;;;8.80;99.90;;;;;;5032518;28;20046;-73
2024/03/09 10:53:46;;;;;;;3.80;0.90;;;8.90;99.90;;;;;;5032488;28;20045;-73
2024/03/09 10:56:18;;;;;;;1.67;1.07;;;8.90;99.90;;;;;;5033131;28;20061;-73
2024/03/09 10:58:45;;;;;;;2.95;1.27;;;8.90;99.90;;;;;;5032866;28;20121;-73
2024/03/09 11:01:15;;;;;;;2.00;0.90;;;8.90;99.90;;;;;;5032439;28;20112;-73
2024/03/09 11:03:59;;;;;;;1.10;0.80;;;8.90;99.90;;;;;;5032365;28;20053;-73
2024/03/09 11:06:57;;;;;;;1.23;0.87;;;8.90;99.90;;;;;;5032129;28;20111;-73
2024/03/09 11:09:50;;;;;;;1.83;0.97;;;8.90;99.90;;;;;;4988962;28;20041;-73
2024/03/09 11:18:15;;;;;;;2.63;1.80;;;8.90;99.90;;;;;;5106073;23;20054;-76
2024/03/09 11:20:59;;;;;;;2.70;1.80;;;8.90;99.90;;;;;;5030103;28;20516;-76
2024/03/09 11:23:26;;;;;;;4.07;3.00;;;9.00;99.90;;;;;;5032548;28;20109;-76
2024/03/09 11:25:54;;;;;;;3.07;1.90;;;9.00;99.90;;;;;;5032715;28;20072;-76
2024/03/09 11:28:47;;;;;;;6.50;4.03;;;9.00;99.90;;;;;;5032153;28;20037;-76
2024/03/09 11:31:16;;;;;;;66.60;38.90;;;8.90;99.90;;;;;;5032252;28;20108;-75
2024/03/09 11:33:51;;;;;;;62.57;39.73;;;9.00;99.90;;;;;;5032582;28;20112;-75
2024/03/09 11:36:39;;;;;;;25.10;16.70;;;9.00;99.90;;;;;;5032352;28;20445;-76
2024/03/09 11:43:14;;;;;;;10.77;8.97;;;9.00;99.90;;;;;;4951904;29;20037;-76
2024/03/09 11:46:44;;;;;;;13.17;11.20;;;9.00;99.90;;;;;;4894692;29;20137;-75
2024/03/09 11:56:18;;;;;;;3.13;2.80;;;9.10;99.90;;;;;;4800994;29;20111;-82
2024/03/09 12:02:48;;;;;;;4.17;3.10;;;9.10;99.90;;;;;;4820967;29;20038;-77
2024/03/09 12:05:21;;;;;;;4.50;2.20;;;9.10;99.90;;;;;;4877966;29;20431;-79
2024/03/09 12:07:47;;;;;;;3.85;2.53;;;9.20;99.90;;;;;;5015806;28;20049;-81
2024/03/09 12:10:13;;;;;;;4.23;2.30;;;9.20;99.90;;;;;;5035542;28;20436;-82
2024/03/09 12:12:47;;;;;;;3.10;2.17;;;9.20;99.90;;;;;;5034729;28;20413;-80
2024/03/09 12:15:16;;;;;;;3.47;2.10;;;9.20;99.90;;;;;;5032888;28;20074;-82
2024/03/09 12:17:42;;;;;;;3.47;2.33;;;9.20;99.90;;;;;;5032749;28;20042;-81
2024/03/09 12:20:13;;;;;;;4.00;2.70;;;9.20;99.90;;;;;;5035089;28;20469;-82
2024/03/09 12:22:39;;;;;;;4.80;3.03;;;9.20;99.90;;;;;;5035314;28;20041;-81
2024/03/09 12:25:07;;;;;;;6.13;2.57;;;9.20;99.90;;;;;;5035128;28;20038;-80
2024/03/09 12:27:37;;;;;;;3.20;2.57;;;9.20;99.90;;;;;;5034956;28;20124;-82
2024/03/09 12:30:08;;;;;;;4.13;3.00;;;9.20;99.90;;;;;;5033391;28;20428;-80
2024/03/09 12:32:35;;;;;;;5.10;2.83;;;9.20;99.90;;;;;;5032621;28;20528;-81
2024/03/09 12:35:02;;;;;;;4.00;2.50;;;9.20;99.90;;;;;;5032164;28;20497;-81
2024/03/09 12:37:29;;;;;;;2.97;2.10;;;9.20;99.90;;;;;;5034337;28;20448;-79
2024/03/09 12:40:18;;;;;;;4.47;2.50;;;9.20;99.90;;;;;;5034745;28;20512;-81
2024/03/09 12:42:44;;;;;;;3.60;2.10;;;9.20;99.90;;;;;;5034796;28;20485;-82
2024/03/09 12:45:25;;;;;;;4.80;2.00;;;9.30;99.90;;;;;;5034577;28;20025;-80
2024/03/09 12:47:54;;;;;;;2.77;1.80;;;9.30;99.90;;;;;;5035048;28;20029;-80
2024/03/09 12:50:22;;;;;;;4.63;4.07;;;9.30;99.90;;;;;;5034546;28;20460;-79
2024/03/09 12:52:52;;;;;;;5.83;4.43;;;9.30;99.90;;;;;;5034040;28;20109;-80
2024/03/09 12:55:25;;;;;;;4.20;3.50;;;9.30;99.90;;;;;;5033910;28;20355;-80
2024/03/09 12:57:52;;;;;;;;;;;9.30;99.90;;;;;;5034506;28;20546;-80
2024/03/09 13:00:22;;;;;;;7.03;2.50;;;9.30;99.90;;;;;;5033794;28;19905;-81
2024/03/09 13:02:52;;;;;;;4.10;2.30;;;9.30;99.90;;;;;;5034359;28;20052;-80
2024/03/09 13:05:25;;;;;;;4.47;2.13;;;9.30;99.90;;;;;;5034008;28;20112;-80
2024/03/09 13:07:52;;;;;;;3.17;2.13;;;9.30;99.90;;;;;;5034409;28;20033;-80
2024/03/09 13:10:21;;;;;;;5.53;3.43;;;9.30;99.90;;;;;;5034790;28;20033;-79
2024/03/09 13:12:48;;;;;;;7.67;2.77;;;9.30;99.90;;;;;;5035110;28;20034;-79
2024/03/09 13:15:20;;;;;;;5.17;3.37;;;9.30;99.90;;;;;;5034271;28;20373;-79
2024/03/09 13:21:23;;;;;;;5.63;4.27;;;9.30;99.90;;;;;;4973715;28;20042;-79
2024/03/09 13:24:39;;;;;;;5.30;3.73;;;9.30;99.90;;;;;;4952962;28;20035;-80
2024/03/09 13:30:42;;;;;;;2.70;2.40;;;9.30;99.90;;;;;;4973212;28;20090;-79
2024/03/09 13:33:50;;;;;;;3.30;2.90;;;9.30;99.90;;;;;;5033794;28;20029;-79
2024/03/09 13:36:27;;;;;;;4.07;2.97;;;9.30;99.90;;;;;;5033563;28;20042;-80
2024/03/09 13:39:15;;;;;;;3.07;2.20;;;9.30;99.90;;;;;;5034120;28;20043;-78
2024/03/09 13:42:33;;;;;;;2.80;1.67;;;9.30;99.90;;;;;;5033562;28;20037;-79
2024/03/09 13:45:40;;;;;;;2.17;1.43;;;9.40;99.90;;;;;;5010812;28;20378;-79
2024/03/09 13:48:13;;;;;;;3.87;1.40;;;9.40;99.90;;;;;;5028293;28;20495;-79
2024/03/09 13:50:40;;;;;;;1.80;1.10;;;9.40;99.90;;;;;;5033707;28;20034;-78
2024/03/09 13:53:06;;;;;;;2.67;1.57;;;9.40;99.90;;;;;;5033451;28;20112;-79
2024/03/09 13:55:35;;;;;;;8.80;5.03;;;9.50;99.90;;;;;;5033582;28;20125;-79
2024/03/09 13:58:01;;;;;;;3.60;2.90;;;9.50;99.90;;;;;;5015692;28;20444;-79
2024/03/09 14:00:28;;;;;;;3.30;2.30;;;9.50;99.90;;;;;;5033143;28;20025;-81
2024/03/09 14:02:56;;;;;;;3.33;1.80;;;9.50;99.90;;;;;;5033520;28;20065;-80
2024/03/09 14:05:31;;;;;;;2.37;1.30;;;9.50;99.90;;;;;;5033127;28;20116;-79
2024/03/09 14:07:57;;;;;;;2.87;1.47;;;9.60;99.90;;;;;;5033297;28;20444;-78
2024/03/09 14:10:38;;;;;;;3.97;1.10;;;9.60;99.90;;;;;;5033110;28;20113;-79
2024/03/09 14:13:10;;;;;;;2.67;1.17;;;9.60;99.90;;;;;;5033053;28;20029;-78
2024/03/09 14:15:37;;;;;;;3.83;1.60;;;9.60;99.90;;;;;;5014855;28;20049;-75
2024/03/09 14:18:14;;;;;;;4.93;2.20;;;9.60;99.90;;;;;;5033029;28;20559;-78
2024/03/09 14:20:42;;;;;;;4.80;1.83;;;9.60;99.90;;;;;;5030336;28;20390;-81
2024/03/09 14:23:10;;;;;;;3.03;1.60;;;9.60;99.90;;;;;;5030216;28;20098;-80
2024/03/09 14:25:36;;;;;;;3.00;2.07;;;9.60;99.90;;;;;;5032056;28;20036;-81
2024/03/09 14:28:02;;;;;;;2.90;1.60;;;9.60;99.90;;;;;;5032981;28;20029;-76
2024/03/09 14:30:32;;;;;;;2.47;1.50;;;9.60;99.90;;;;;;5033168;28;20040;-79
2024/03/09 14:32:58;;;;;;;3.87;3.10;;;9.60;99.90;;;;;;5033055;28;20030;-82
2024/03/09 14:35:32;;;;;;;4.23;3.00;;;9.60;99.90;;;;;;5032940;28;20037;-80
2024/03/09 14:37:59;;;;;;;5.60;3.10;;;9.60;99.90;;;;;;5033006;28;20025;-81
2024/03/09 14:40:25;;;;;;;2.37;1.40;;;9.60;99.90;;;;;;5015284;28;20044;-81
2024/03/09 14:42:51;;;;;;;4.67;1.53;;;9.60;99.90;;;;;;5014971;28;20444;-83
2024/03/09 14:45:25;;;;;;;3.13;1.40;;;9.60;99.90;;;;;;5032574;28;20040;-84
2024/03/09 14:47:59;;;;;;;1.80;1.23;;;9.60;99.90;;;;;;5031651;28;20060;-81
2024/03/09 14:50:25;;;;;;;5.20;2.37;;;9.60;99.90;;;;;;5033419;28;20386;-81
2024/03/09 14:52:55;;;;;;;8.53;5.17;;;9.60;99.90;;;;;;5030686;28;20409;-75
2024/03/09 14:55:26;;;;;;;5.10;2.47;;;9.60;99.90;;;;;;5033095;28;20044;-81
2024/03/09 14:57:53;;;;;;;5.57;3.93;;;9.60;99.90;;;;;;5032683;28;20029;-81
2024/03/09 15:03:14;;;;;;;3.57;2.70;;;9.50;99.90;;;;;;5012551;28;20452;-76
2024/03/09 15:05:41;;;;;;;7.03;4.20;;;9.60;99.90;;;;;;5012649;28;20048;-79
2024/03/09 15:09:00;;;;;;;5.87;4.30;;;9.50;99.90;;;;;;4994717;28;20030;-80
2024/03/09 15:18:43;;;;;;;2.50;1.73;;;9.50;99.90;;;;;;4902607;28;20135;-78
2024/03/09 15:21:09;;;;;;;2.73;2.07;;;9.50;99.90;;;;;;4953742;28;20067;-80
2024/03/09 15:23:43;;;;;;;2.63;1.80;;;9.50;99.90;;;;;;4962967;28;20048;-79
2024/03/09 15:26:19;;;;;;;3.00;2.10;;;9.50;99.90;;;;;;4961889;28;20035;-81
2024/03/09 15:28:46;;;;;;;3.03;1.70;;;9.50;99.90;;;;;;4954706;28;20040;-81